createdAt,value
2018-10-03T00:00:08.573Z,14.97
2018-10-03T00:02:37.221Z,12.07
2018-10-03T00:05:05.949Z,12.33
2018-10-03T00:07:34.671Z,13.03
2018-10-03T00:10:03.407Z,14.90
2018-10-03T00:12:32.085Z,13.60
2018-10-03T00:15:00.791Z,15.33
2018-10-03T00:17:29.483Z,14.13
2018-10-03T00:19:58.225Z,14.53
2018-10-03T00:22:26.897Z,14.10
2018-10-03T00:24:55.603Z,15.53
2018-10-03T00:27:24.271Z,10.10
2018-10-03T00:29:52.968Z,15.77
2018-10-03T00:32:21.632Z,17.93
2018-10-03T00:34:50.333Z,17.37
2018-10-03T00:37:18.993Z,12.57
2018-10-03T00:39:47.696Z,16.77
2018-10-03T00:42:16.413Z,13.93
2018-10-03T00:44:45.119Z,17.03
2018-10-03T00:47:13.826Z,12.37
2018-10-03T00:49:42.561Z,17.43
2018-10-03T00:52:11.210Z,21.43
2018-10-03T00:54:39.990Z,18.77
2018-10-03T00:57:08.618Z,15.10
2018-10-03T00:59:37.379Z,13.40
2018-10-03T01:02:06.273Z,14.83
2018-10-03T01:04:35.052Z,16.60
2018-10-03T01:07:03.741Z,17.07
2018-10-03T01:09:32.392Z,14.40
2018-10-03T01:12:01.097Z,20.53
2018-10-03T01:14:29.745Z,15.87
2018-10-03T01:16:58.392Z,16.13
2018-10-03T01:19:27.115Z,15.97
2018-10-03T01:21:55.838Z,13.80
2018-10-03T01:24:24.517Z,13.83
2018-10-03T01:26:53.167Z,16.53
2018-10-03T01:29:21.868Z,12.97
2018-10-03T01:31:50.517Z,13.10
2018-10-03T01:34:19.181Z,21.60
2018-10-03T01:36:47.898Z,18.30
2018-10-03T01:39:16.514Z,16.13
2018-10-03T01:41:45.282Z,18.70
2018-10-03T01:44:13.978Z,18.60
2018-10-03T01:46:42.642Z,16.63
2018-10-03T01:49:11.337Z,16.87
2018-10-03T01:51:40.102Z,15.97
2018-10-03T01:54:08.786Z,17.10
2018-10-03T01:56:37.491Z,17.33
2018-10-03T01:59:06.179Z,16.57
2018-10-03T02:01:34.920Z,20.07
2018-10-03T02:04:03.621Z,18.67
2018-10-03T02:06:32.270Z,20.03
2018-10-03T02:09:00.933Z,21.63
2018-10-03T02:11:29.653Z,21.23
2018-10-03T02:13:58.350Z,20.30
2018-10-03T02:16:27.014Z,17.27
2018-10-03T02:18:55.689Z,23.50
2018-10-03T02:21:24.388Z,18.43
2018-10-03T02:23:53.151Z,18.30
2018-10-03T02:26:21.870Z,25.13
2018-10-03T02:28:50.571Z,20.53
2018-10-03T02:31:19.317Z,20.37
2018-10-03T02:33:47.996Z,22.73
2018-10-03T02:36:16.687Z,18.60
2018-10-03T02:38:45.341Z,24.50
2018-10-03T02:41:14.074Z,20.00
2018-10-03T02:43:42.720Z,18.60
2018-10-03T02:46:11.416Z,19.27
2018-10-03T02:48:40.046Z,23.23
2018-10-03T02:51:08.785Z,19.77
2018-10-03T02:53:37.446Z,21.80
2018-10-03T02:56:06.143Z,21.90
2018-10-03T02:58:34.825Z,16.43
2018-10-03T03:01:03.485Z,22.80
2018-10-03T03:03:32.194Z,25.43
2018-10-03T03:06:00.876Z,19.63
2018-10-03T03:08:29.597Z,18.27
2018-10-03T03:10:58.304Z,21.50
2018-10-03T03:13:27.028Z,17.90
2018-10-03T03:15:55.725Z,24.77
2018-10-03T03:18:24.379Z,21.57
2018-10-03T03:20:53.089Z,18.77
2018-10-03T03:23:21.829Z,18.17
2018-10-03T03:25:50.497Z,25.50
2018-10-03T03:28:19.224Z,24.40
2018-10-03T03:30:47.967Z,25.00
2018-10-03T03:33:16.669Z,19.03
2018-10-03T03:35:45.370Z,22.50
2018-10-03T03:38:14.085Z,14.10
2018-10-03T03:40:42.793Z,20.57
2018-10-03T03:43:11.542Z,21.13
2018-10-03T03:45:40.237Z,23.83
2018-10-03T03:48:08.933Z,20.20
2018-10-03T03:50:37.629Z,18.33
2018-10-03T03:53:06.510Z,18.67
2018-10-03T03:55:35.222Z,24.77
2018-10-03T03:58:03.926Z,18.43
2018-10-03T04:00:32.612Z,19.93
2018-10-03T04:03:01.313Z,19.90
2018-10-03T04:05:29.974Z,23.80
2018-10-03T04:07:58.694Z,22.17
2018-10-03T04:10:27.372Z,21.37
2018-10-03T04:12:56.107Z,22.27
2018-10-03T04:15:24.841Z,18.83
2018-10-03T04:17:53.554Z,15.87
2018-10-03T04:20:22.490Z,22.23
2018-10-03T04:22:51.228Z,22.50
2018-10-03T04:25:26.544Z,28.60
2018-10-03T04:27:55.237Z,17.47
2018-10-03T04:30:23.947Z,21.17
2018-10-03T04:32:52.656Z,17.03
2018-10-03T04:35:21.352Z,21.13
2018-10-03T04:37:50.089Z,21.13
2018-10-03T04:40:18.845Z,24.67
2018-10-03T04:42:47.542Z,23.67
2018-10-03T04:45:16.273Z,21.00
2018-10-03T04:47:44.925Z,20.13
2018-10-03T04:50:13.615Z,19.67
2018-10-03T04:52:42.300Z,21.93
2018-10-03T04:55:11.014Z,22.97
2018-10-03T04:57:39.662Z,18.17
2018-10-03T05:00:08.414Z,19.70
2018-10-03T05:02:37.122Z,16.63
2018-10-03T05:05:05.804Z,19.97
2018-10-03T05:07:34.490Z,19.60
2018-10-03T05:10:03.188Z,20.47
2018-10-03T05:12:31.917Z,18.83
2018-10-03T05:15:00.568Z,18.00
2018-10-03T05:17:29.235Z,21.47
2018-10-03T05:19:57.993Z,20.10
2018-10-03T05:22:26.709Z,20.83
2018-10-03T05:24:55.562Z,18.93
2018-10-03T05:27:24.345Z,20.33
2018-10-03T05:29:53.026Z,18.23
2018-10-03T05:32:21.722Z,20.07
2018-10-03T05:34:53.374Z,22.27
2018-10-03T05:37:22.151Z,21.07
2018-10-03T05:39:50.808Z,21.70
2018-10-03T05:42:19.502Z,20.63
2018-10-03T05:44:48.203Z,24.77
2018-10-03T05:47:16.982Z,24.57
2018-10-03T05:49:45.757Z,20.97
2018-10-03T05:52:14.491Z,21.93
2018-10-03T05:54:43.211Z,22.00
2018-10-03T05:57:11.905Z,15.83
2018-10-03T05:59:40.605Z,20.93
2018-10-03T06:02:09.341Z,18.90
2018-10-03T06:04:38.040Z,23.27
2018-10-03T06:07:06.739Z,23.57
2018-10-03T06:09:35.429Z,19.37
2018-10-03T06:12:04.210Z,22.27
2018-10-03T06:14:32.892Z,17.87
2018-10-03T06:17:01.588Z,17.87
2018-10-03T06:19:30.289Z,23.70
2018-10-03T06:21:59.085Z,20.97
2018-10-03T06:24:27.745Z,18.87
2018-10-03T06:26:56.524Z,20.40
2018-10-03T06:29:25.177Z,20.13
2018-10-03T06:31:53.906Z,20.07
2018-10-03T06:34:22.603Z,25.53
2018-10-03T06:36:51.357Z,19.60
2018-10-03T06:39:20.073Z,21.43
2018-10-03T06:41:48.749Z,23.10
2018-10-03T06:44:17.470Z,16.70
2018-10-03T06:46:46.140Z,17.63
2018-10-03T06:49:14.788Z,22.67
2018-10-03T06:51:50.090Z,13.90
2018-10-03T06:54:18.745Z,20.43
2018-10-03T06:56:47.448Z,13.27
2018-10-03T06:59:16.152Z,17.97
2018-10-03T07:01:44.821Z,17.97
2018-10-03T07:04:13.983Z,20.03
2018-10-03T07:06:42.638Z,13.67
2018-10-03T07:09:11.341Z,19.63
2018-10-03T07:11:40.136Z,17.47
2018-10-03T07:14:08.852Z,17.03
2018-10-03T07:16:37.571Z,19.70
2018-10-03T07:19:06.326Z,22.90
2018-10-03T07:21:35.034Z,17.67
2018-10-03T07:24:03.743Z,20.07
2018-10-03T07:26:32.417Z,16.50
2018-10-03T07:29:07.775Z,17.00
2018-10-03T07:31:36.536Z,16.00
2018-10-03T07:34:05.219Z,16.57
2018-10-03T07:36:33.954Z,16.83
2018-10-03T07:39:02.707Z,19.63
2018-10-03T07:41:31.366Z,18.60
2018-10-03T07:44:00.129Z,12.40
2018-10-03T07:46:28.775Z,17.30
2018-10-03T07:48:57.519Z,16.37
2018-10-03T07:51:26.177Z,16.90
2018-10-03T07:53:54.865Z,18.77
2018-10-03T07:56:23.633Z,13.73
2018-10-03T07:58:52.363Z,15.63
2018-10-03T08:01:21.006Z,14.07
2018-10-03T08:03:49.657Z,16.67
2018-10-03T08:06:18.341Z,13.57
2018-10-03T08:08:47.037Z,14.40
2018-10-03T08:11:15.692Z,14.50
2018-10-03T08:13:44.329Z,17.37
2018-10-03T08:16:13.030Z,12.87
2018-10-03T08:18:41.746Z,11.77
2018-10-03T08:21:10.444Z,16.00
2018-10-03T08:23:39.148Z,10.83
2018-10-03T08:26:07.903Z,17.13
2018-10-03T08:28:36.574Z,15.67
2018-10-03T08:31:05.228Z,12.97
2018-10-03T08:33:33.959Z,15.63
2018-10-03T08:36:02.764Z,14.93
2018-10-03T08:38:31.447Z,15.97
2018-10-03T08:41:00.170Z,13.90
2018-10-03T08:43:28.853Z,17.60
2018-10-03T08:45:57.559Z,16.27
2018-10-03T08:48:26.209Z,16.27
2018-10-03T08:50:54.912Z,14.43
2018-10-03T08:53:23.922Z,17.57
2018-10-03T08:55:52.636Z,14.50
2018-10-03T08:58:21.340Z,11.30
2018-10-03T09:00:50.285Z,22.20
2018-10-03T09:03:18.994Z,12.33
2018-10-03T09:05:47.700Z,17.57
2018-10-03T09:08:17.364Z,15.30
2018-10-03T09:10:47.493Z,10.90
2018-10-03T09:13:16.155Z,13.67
2018-10-03T09:15:44.845Z,16.83
2018-10-03T09:18:13.574Z,12.83
2018-10-03T09:20:42.350Z,15.47
2018-10-03T09:23:11.081Z,14.87
2018-10-03T09:25:39.731Z,13.90
2018-10-03T09:28:08.537Z,15.90
2018-10-03T09:30:37.207Z,14.07
2018-10-03T09:33:05.928Z,15.90
2018-10-03T09:35:34.598Z,12.57
2018-10-03T09:38:03.281Z,15.27
2018-10-03T09:40:31.981Z,17.93
2018-10-03T09:43:00.692Z,16.17
2018-10-03T09:45:29.440Z,16.33
2018-10-03T09:47:58.111Z,20.23
2018-10-03T09:50:26.797Z,16.03
2018-10-03T09:52:55.497Z,12.93
2018-10-03T09:55:24.197Z,16.63
2018-10-03T09:57:52.943Z,14.63
2018-10-03T10:00:26.921Z,14.87
2018-10-03T10:02:55.573Z,17.17
2018-10-03T10:05:24.349Z,16.40
2018-10-03T10:07:53.084Z,17.00
2018-10-03T10:10:21.810Z,12.63
2018-10-03T10:12:50.517Z,12.97
2018-10-03T10:15:19.237Z,18.13
2018-10-03T10:17:47.916Z,17.47
2018-10-03T10:20:16.761Z,17.67
2018-10-03T10:22:46.085Z,13.70
2018-10-03T10:25:14.826Z,15.23
2018-10-03T10:27:43.502Z,17.37
2018-10-03T10:30:12.205Z,13.23
2018-10-03T10:32:40.932Z,17.40
2018-10-03T10:35:09.591Z,12.03
2018-10-03T10:37:38.521Z,14.83
2018-10-03T10:40:07.227Z,16.67
2018-10-03T10:42:35.867Z,11.00
2018-10-03T10:45:04.608Z,14.40
2018-10-03T10:47:33.305Z,16.60
2018-10-03T10:50:01.990Z,13.67
2018-10-03T10:52:30.686Z,12.67
2018-10-03T10:54:59.423Z,9.87
2018-10-03T10:57:28.134Z,10.93
2018-10-03T10:59:56.829Z,11.00
2018-10-03T11:02:25.552Z,12.40
2018-10-03T11:04:54.247Z,13.67
2018-10-03T11:07:22.894Z,8.13
2018-10-03T11:09:51.600Z,13.87
2018-10-03T11:12:20.253Z,13.60
2018-10-03T11:14:48.920Z,12.87
2018-10-03T11:17:17.610Z,12.60
2018-10-03T11:19:46.278Z,14.03
2018-10-03T11:22:14.981Z,13.87
2018-10-03T11:24:43.799Z,9.67
2018-10-03T11:27:12.382Z,11.73
2018-10-03T11:29:41.153Z,9.83
2018-10-03T11:32:09.880Z,12.43
2018-10-03T11:34:38.480Z,11.77
2018-10-03T11:37:07.272Z,14.60
2018-10-03T11:39:35.981Z,14.07
2018-10-03T11:42:04.654Z,9.40
2018-10-03T11:44:33.338Z,13.23
2018-10-03T11:47:02.109Z,8.90
2018-10-03T11:49:30.792Z,10.37
2018-10-03T11:51:59.522Z,10.80
2018-10-03T11:54:28.175Z,7.87
2018-10-03T11:56:56.920Z,8.03
2018-10-03T11:59:25.623Z,12.00
2018-10-03T12:01:54.371Z,11.37
2018-10-03T12:04:23.045Z,12.77
2018-10-03T12:06:51.750Z,9.80
2018-10-03T12:09:20.423Z,10.57
2018-10-03T12:11:49.102Z,12.37
2018-10-03T12:14:17.849Z,8.67
2018-10-03T12:16:46.530Z,9.03
